aviador You're here:

OIZB Decoded Metar

ZABOL in IRAN
Report Time2017-10-22 06:00:00
UTC Time2017-10-22 06:34:06
Flight Rules vfr VFR
Wind340° at 10 kt
W.Decomp.*RWY 34: 10.0 kt HW 0.3 kt LCW
W.Rank340° ranks 3
Current wind is below 340° avg. (14.1)
Visibility9999 m
Phenomena:N/A
Clouds:N/A
Expected CloudBase > 10,400 ft AGL from Temp-Dew spread
CeilingNone
Temp24°C (ISA +12)
Dew Point-2°C (18% RH)
AAT18.2°C
QNH1012 hPa
Density Alt3,123 ft
Elevation1,604 ft
Report Wrong Elevation
Raw Report
METAR OIZB 220600Z 34010KT CAVOK 24/M02 Q1012=

Extra information for OIZB:More info

Metar Taf Metar & Taf Last 4 Metars F.Rules Stats Wind Profile Meteogram Temp Stats Airport Information Weather charts Add Link Nearby VenuesMetar ALERT Operation Metar Decoded Social comments